Time;durP1;ratioP1;P1;durP2;ratioP2;P2;SDS_P1;SDS_P2;PMS_P1;PMS_P2;Temp;Humidity;BMP_temperature;BMP_pressure;BME280_temperature;BME280_humidity;BME280_pressure;Samples;Min_cycle;Max_cycle;Signal;HPM_P1;HPM_P2
2020/12/20 00:01:44;;;;;;;12.90;4.38;;;8.10;99.90;;;8.08;100.00;101315.22;4881996;29;20081;-94
2020/12/20 00:04:13;;;;;;;9.82;4.22;;;8.30;99.90;;;8.01;100.00;101311.53;4852762;29;20049;-93
2020/12/20 00:06:43;;;;;;;9.45;4.82;;;8.10;99.90;;;8.04;100.00;101305.72;4850075;29;20037;-93
2020/12/20 00:09:13;;;;;;;9.15;3.83;;;8.10;99.90;;;8.10;100.00;101313.19;4849016;29;20113;-94
2020/12/20 00:11:42;;;;;;;10.25;5.00;;;8.10;99.90;;;8.00;100.00;101309.81;4864520;29;20037;-94
2020/12/20 00:14:27;;;;;;;7.85;4.32;;;9.00;99.90;;;8.08;100.00;101314.38;4879894;29;20037;-95
2020/12/20 00:17:07;;;;;;;;;;;8.10;99.90;;;8.12;100.00;101311.16;4866969;29;20021;-93
2020/12/20 00:19:36;;;;;;;6.70;3.78;;;8.10;99.90;;;8.22;100.00;101319.94;4866308;29;19915;-95
2020/12/20 00:22:08;;;;;;;10.50;4.53;;;8.10;99.90;;;8.18;100.00;101313.16;4879539;29;20033;-91
2020/12/20 00:24:37;;;;;;;6.47;3.85;;;9.10;99.90;;;8.15;100.00;101326.22;4859850;29;20033;-92
2020/12/20 00:27:05;;;;;;;5.80;3.65;;;8.20;99.90;;;8.12;100.00;101329.28;4840939;29;20026;-92
2020/12/20 00:29:34;;;;;;;8.20;4.80;;;8.20;99.90;;;8.14;100.00;101328.06;4863894;29;20037;-91
2020/12/20 00:32:01;;;;;;;11.68;4.50;;;8.10;99.90;;;8.18;100.00;101323.16;4862645;29;20096;-94
2020/12/20 00:34:28;;;;;;;10.68;4.75;;;8.60;99.90;;;8.22;100.00;101325.38;4862589;29;20033;-93
2020/12/20 00:36:54;;;;;;;10.35;4.75;;;8.20;99.90;;;8.17;100.00;101330.44;4863262;29;20038;-93
2020/12/20 00:39:25;;;;;;;7.85;3.25;;;8.20;99.90;;;8.14;100.00;101325.38;4866142;29;20385;-92
2020/12/20 00:41:55;;;;;;;12.65;5.18;;;8.20;99.90;;;8.18;100.00;101324.00;4863361;29;20067;-93
2020/12/20 00:44:25;;;;;;;9.27;3.55;;;8.20;99.90;;;8.10;100.00;101325.91;4863014;29;20066;-93
2020/12/20 00:46:54;;;;;;;14.88;5.30;;;8.10;99.90;;;8.15;100.00;101335.19;4862202;29;20040;-93
2020/12/20 00:49:29;;;;;;;13.45;5.07;;;8.80;99.90;;;8.13;100.00;101331.81;4859673;29;20143;-94
2020/12/20 00:51:59;;;;;;;7.45;4.40;;;8.20;99.90;;;8.23;100.00;101337.06;4862177;29;20527;-93
2020/12/20 00:54:27;;;;;;;8.98;3.30;;;8.30;99.90;;;8.27;100.00;101339.25;4846615;29;20033;-94
2020/12/20 00:56:54;;;;;;;6.88;4.18;;;8.30;99.90;;;8.20;100.00;101332.81;4861273;29;20044;-93
2020/12/20 00:59:20;;;;;;;12.57;5.45;;;8.70;99.90;;;8.21;100.00;101329.09;4846863;29;20037;-93
2020/12/20 01:01:47;;;;;;;10.65;4.18;;;8.30;99.90;;;8.20;100.00;101332.81;4860423;29;20013;-93
2020/12/20 01:04:13;;;;;;;9.45;3.60;;;8.60;99.90;;;8.25;100.00;101337.72;4846784;29;20040;-95
2020/12/20 01:06:43;;;;;;;11.88;4.53;;;8.20;99.90;;;8.13;100.00;101331.81;4834506;29;20044;-93
2020/12/20 01:09:27;;;;;;;10.55;3.38;;;8.30;99.90;;;8.19;100.00;101339.25;4852756;29;20041;-93
2020/12/20 01:12:03;;;;;;;10.90;4.70;;;8.50;99.90;;;8.22;100.00;101338.94;4851016;29;20029;-94
2020/12/20 01:14:29;;;;;;;14.95;4.07;;;8.20;99.90;;;8.03;100.00;101342.00;4851579;29;20045;-93
2020/12/20 01:16:55;;;;;;;15.90;4.80;;;8.20;99.90;;;8.23;100.00;101342.50;4848488;29;20026;-94
2020/12/20 01:19:23;;;;;;;8.43;3.85;;;8.20;99.90;;;8.11;100.00;101327.59;4849411;29;20037;-93
2020/12/20 01:25:30;;;;;;;10.43;4.32;;;7.80;99.90;;;8.12;100.00;101334.72;4875592;29;20044;-94
2020/12/20 01:27:56;;;;;;;9.05;4.40;;;8.20;99.90;;;8.17;100.00;101337.75;4828090;29;20037;-93
2020/12/20 01:30:23;;;;;;;9.65;3.85;;;8.20;99.90;;;8.14;100.00;101335.34;4827274;29;20084;-94
2020/12/20 01:32:49;;;;;;;15.60;5.07;;;8.20;99.90;;;8.10;100.00;101350.31;4843124;29;20130;-94
2020/12/20 01:35:15;;;;;;;13.95;4.57;;;8.30;99.90;;;8.04;100.00;101340.97;4842219;29;20041;-92
2020/12/20 01:37:41;;;;;;;9.40;4.22;;;8.30;99.90;;;8.04;100.00;101343.69;4843374;29;20026;-93
2020/12/20 01:40:31;;;;;;;15.10;4.20;;;8.30;99.90;;;8.07;100.00;101354.19;4843974;29;20041;-93
2020/12/20 01:42:58;;;;;;;18.42;5.53;;;8.30;99.90;;;8.02;100.00;101357.41;4874762;29;20030;-93
2020/12/20 01:45:24;;;;;;;9.55;4.20;;;8.30;99.90;;;8.20;100.00;101354.50;4841243;29;20044;-92
2020/12/20 01:47:51;;;;;;;11.13;5.00;;;8.40;99.90;;;8.21;100.00;101350.78;4827675;29;20029;-94
2020/12/20 01:50:17;;;;;;;16.38;4.93;;;8.30;99.90;;;8.19;100.00;101355.53;4822353;29;20026;-94
2020/12/20 01:52:47;;;;;;;12.02;3.88;;;8.40;99.90;;;8.08;100.00;101360.47;4822491;29;20395;-93
2020/12/20 01:55:17;;;;;;;10.50;4.60;;;8.30;99.90;;;8.04;100.00;101359.94;4825233;29;20585;-93
2020/12/20 01:57:43;;;;;;;9.80;5.10;;;8.30;99.90;;;8.19;100.00;101369.09;4855729;29;20054;-92
2020/12/20 02:00:09;;;;;;;11.20;3.75;;;8.40;99.90;;;8.10;100.00;101364.72;4856874;29;20037;-93
2020/12/20 02:02:35;;;;;;;10.82;3.67;;;8.40;99.90;;;8.14;100.00;101371.47;4858023;29;20033;-93
2020/12/20 02:05:01;;;;;;;7.43;4.35;;;8.40;99.90;;;8.13;100.00;101363.50;4861891;29;20032;-92
2020/12/20 02:07:27;;;;;;;9.73;4.38;;;8.80;99.90;;;8.24;100.00;101361.28;4860073;29;20037;-93
2020/12/20 02:09:53;;;;;;;8.48;5.30;;;8.40;99.90;;;8.22;100.00;101357.06;4796141;29;20141;-94
2020/12/20 02:12:26;;;;;;;10.43;4.50;;;8.50;99.90;;;8.21;100.00;101368.94;4828024;29;20042;-94
2020/12/20 02:14:54;;;;;;;8.63;4.18;;;8.40;99.90;;;8.11;100.00;101365.56;4830499;29;20051;-92
2020/12/20 02:17:21;;;;;;;8.90;4.05;;;8.30;99.90;;;8.22;100.00;101357.91;4844855;29;20075;-93
2020/12/20 02:19:50;;;;;;;10.25;4.07;;;8.40;99.90;;;8.23;100.00;101365.03;4799474;29;20038;-92
2020/12/20 02:22:38;;;;;;;7.28;4.47;;;8.40;99.90;;;8.28;100.00;101359.91;4831733;29;20038;-93
2020/12/20 02:27:40;;;;;;;8.88;4.38;;;8.40;99.90;;;8.35;100.00;101347.38;5059080;23;20065;-93
2020/12/20 02:30:06;;;;;;;11.80;4.38;;;8.40;99.90;;;8.29;100.00;101336.34;4845070;29;20025;-95
2020/12/20 02:32:32;;;;;;;11.57;4.82;;;8.70;99.90;;;8.29;100.00;101334.50;4843111;29;20058;-94
2020/12/20 02:34:58;;;;;;;8.25;3.95;;;8.40;99.90;;;8.17;100.00;101352.16;4839660;29;20072;-94
2020/12/20 02:37:24;;;;;;;9.13;3.95;;;8.40;99.90;;;8.19;100.00;101347.41;4824698;29;20048;-94
2020/12/20 02:39:50;;;;;;;10.07;3.67;;;8.40;99.90;;;8.16;100.00;101346.88;4839702;29;20034;-95
2020/12/20 02:42:17;;;;;;;9.95;3.95;;;8.40;99.90;;;8.19;100.00;101357.41;4824154;29;20038;-94
2020/12/20 02:44:43;;;;;;;11.75;4.75;;;8.60;99.90;;;8.18;100.00;101361.97;4856678;29;20036;-94
2020/12/20 02:47:10;;;;;;;9.20;3.58;;;8.40;99.90;;;8.18;100.00;101367.41;4825832;29;20485;-93
2020/12/20 02:49:36;;;;;;;8.10;4.18;;;8.40;99.90;;;8.22;100.00;101357.06;4839706;29;20032;-94
2020/12/20 02:52:03;;;;;;;9.20;4.28;;;8.40;99.90;;;8.14;100.00;101360.63;4854785;29;20053;-95
2020/12/20 02:54:29;;;;;;;5.78;4.00;;;8.50;99.90;;;8.19;100.00;101358.25;4825042;29;20101;-94
2020/12/20 02:56:56;;;;;;;9.02;3.67;;;8.50;99.90;;;8.22;100.00;101352.47;4839013;29;20056;-94
2020/12/20 02:59:22;;;;;;;15.10;4.38;;;8.50;99.90;;;8.15;100.00;101356.88;4824787;29;20085;-92
2020/12/20 03:01:48;;;;;;;11.05;3.53;;;8.50;99.90;;;8.16;100.00;101353.16;4809710;29;20033;-94
2020/12/20 03:04:14;;;;;;;6.90;3.42;;;8.40;99.90;;;8.11;100.00;101352.84;4839105;29;20030;-93
2020/12/20 03:06:40;;;;;;;8.75;4.10;;;8.40;99.90;;;7.99;100.00;101356.94;4809589;29;20066;-92
2020/12/20 03:09:06;;;;;;;12.52;4.13;;;8.40;99.90;;;8.03;100.00;101360.97;4823858;29;20045;-94
2020/12/20 03:11:32;;;;;;;11.75;4.35;;;8.40;99.90;;;8.08;100.00;101355.88;4823894;29;20030;-94
2020/12/20 03:13:57;;;;;;;9.75;4.32;;;8.10;99.90;;;8.19;100.00;101358.25;4834282;29;20030;-94
2020/12/20 03:16:24;;;;;;;9.27;3.65;;;8.40;99.90;;;8.12;100.00;101357.25;4804777;29;20037;-94
2020/12/20 03:18:49;;;;;;;8.43;4.55;;;8.50;99.90;;;8.00;100.00;101356.75;4819932;29;20043;-94
2020/12/20 03:21:15;;;;;;;9.25;3.15;;;8.80;99.90;;;8.04;100.00;101354.53;4838945;29;20082;-94
2020/12/20 03:23:41;;;;;;;9.82;3.90;;;8.40;99.90;;;8.12;100.00;101354.53;4823162;29;20045;-94
2020/12/20 03:26:08;;;;;;;9.27;4.75;;;8.70;99.90;;;7.99;100.00;101356.94;4839697;29;20060;-95
2020/12/20 03:28:34;;;;;;;10.07;4.22;;;8.30;99.90;;;7.95;100.00;101355.56;4839476;29;20040;-94
2020/12/20 03:31:01;;;;;;;5.72;3.28;;;8.70;99.90;;;7.97;100.00;101365.22;4826431;29;20120;-93
2020/12/20 03:33:27;;;;;;;11.65;4.28;;;8.30;99.90;;;7.96;100.00;101368.09;4850494;29;20026;-95
2020/12/20 03:35:53;;;;;;;14.40;5.85;;;8.30;99.90;;;7.98;100.00;101368.78;4843957;29;20021;-93
2020/12/20 03:38:19;;;;;;;14.70;4.47;;;8.20;99.90;;;7.94;100.00;101362.00;4842645;29;20037;-94
2020/12/20 03:40:45;;;;;;;10.10;3.35;;;8.60;99.90;;;7.99;100.00;101362.34;4851390;29;20038;-92
2020/12/20 03:43:11;;;;;;;9.07;3.67;;;8.20;99.90;;;7.96;100.00;101368.94;4848075;29;20076;-94
2020/12/20 03:45:37;;;;;;;10.18;3.72;;;8.50;99.90;;;7.93;100.00;101365.72;4826322;29;20154;-93
2020/12/20 03:48:03;;;;;;;10.75;3.83;;;8.20;99.90;;;7.85;100.00;101360.31;4842121;29;20071;-94
2020/12/20 03:50:32;;;;;;;9.88;3.80;;;8.20;99.90;;;7.89;100.00;101361.69;4841299;29;20030;-94
2020/12/20 03:52:58;;;;;;;13.85;2.90;;;8.20;99.90;;;7.91;100.00;101367.75;4845323;29;20037;-93
2020/12/20 03:55:24;;;;;;;9.25;3.55;;;8.20;99.90;;;7.90;100.00;101363.38;4853809;29;20026;-93
2020/12/20 03:57:50;;;;;;;9.20;3.10;;;8.20;99.90;;;7.85;100.00;101368.44;4843043;29;20374;-93
2020/12/20 04:00:16;;;;;;;12.55;3.67;;;8.10;99.90;;;7.75;100.00;101373.19;4842926;29;20033;-93
2020/12/20 04:02:42;;;;;;;10.27;3.70;;;8.50;99.90;;;7.73;100.00;101372.50;4843059;29;20046;-94
2020/12/20 04:05:08;;;;;;;8.70;4.07;;;8.10;99.90;;;7.71;100.00;101374.53;4842224;29;20469;-94
2020/12/20 04:07:34;;;;;;;10.25;3.67;;;8.20;99.90;;;7.80;100.00;101374.34;4852694;29;20025;-94
2020/12/20 04:10:00;;;;;;;13.73;3.55;;;8.00;99.90;;;7.86;100.00;101375.56;4839493;29;20451;-94
2020/12/20 04:12:26;;;;;;;9.18;4.07;;;8.00;99.90;;;7.82;100.00;101377.75;4869601;29;20029;-94
2020/12/20 04:14:52;;;;;;;10.90;3.53;;;7.90;99.90;;;7.82;100.00;101366.06;4841796;29;20033;-94
2020/12/20 04:17:18;;;;;;;8.50;3.42;;;7.60;99.90;;;7.84;100.00;101369.47;4841971;29;20029;-94
2020/12/20 04:19:44;;;;;;;11.80;4.07;;;7.40;99.90;;;7.86;100.00;101378.28;4841789;29;20040;-94
2020/12/20 04:22:10;;;;;;;7.28;3.63;;;7.90;99.90;;;7.87;100.00;101372.69;4841684;29;20101;-94
2020/12/20 04:24:36;;;;;;;11.50;3.80;;;8.20;99.90;;;7.82;100.00;101366.91;4841858;29;20033;-93
2020/12/20 04:27:02;;;;;;;10.38;3.60;;;7.80;99.90;;;7.84;100.00;101364.03;4841949;29;20121;-93
2020/12/20 04:29:28;;;;;;;9.57;4.13;;;8.50;99.90;;;7.77;100.00;101363.88;4841634;29;20029;-95
2020/12/20 04:31:54;;;;;;;14.05;4.68;;;7.80;99.90;;;7.87;100.00;101366.41;4857414;29;20499;-94
2020/12/20 04:34:20;;;;;;;11.32;3.22;;;8.60;99.90;;;7.83;100.00;101365.06;4841323;29;20033;-93
2020/12/20 04:36:46;;;;;;;16.17;4.25;;;7.80;99.90;;;7.80;100.00;101370.81;4826074;29;20037;-94
2020/12/20 04:39:12;;;;;;;13.32;3.85;;;8.10;99.90;;;7.82;100.00;101366.06;4841129;29;20030;-94
2020/12/20 04:41:39;;;;;;;6.75;3.15;;;7.40;99.90;;;7.67;100.00;101378.63;4842648;29;20053;-94
2020/12/20 04:44:05;;;;;;;9.43;3.05;;;7.70;99.90;;;7.69;100.00;101376.56;4843492;29;20053;-93
2020/12/20 04:46:32;;;;;;;13.13;4.30;;;8.00;99.90;;;7.65;100.00;101363.38;4854381;29;20037;-93
2020/12/20 04:49:02;;;;;;;13.43;3.92;;;8.00;99.90;;;7.64;100.00;101364.38;4862862;29;20110;-91
2020/12/20 04:51:29;;;;;;;13.27;3.90;;;7.80;99.90;;;7.68;100.00;101364.03;4847123;29;20037;-93
2020/12/20 04:53:58;;;;;;;9.88;4.43;;;7.80;99.90;;;7.57;100.00;101368.75;4860292;29;20030;-93
2020/12/20 04:56:28;;;;;;;9.70;4.43;;;8.20;99.90;;;7.56;100.00;101369.78;4858709;29;20560;-93
2020/12/20 04:58:56;;;;;;;11.95;3.70;;;8.20;99.90;;;7.54;100.00;101374.53;4862538;29;20046;-93
2020/12/20 05:01:22;;;;;;;16.58;3.95;;;7.80;99.90;;;7.50;100.00;101370.47;4850521;29;20025;-93
2020/12/20 05:03:48;;;;;;;15.15;3.83;;;7.80;99.90;;;7.48;100.00;101369.78;4827062;29;20108;-94
2020/12/20 05:06:16;;;;;;;11.50;4.18;;;8.00;99.90;;;7.48;100.00;101372.47;4826255;29;20120;-94
2020/12/20 05:08:42;;;;;;;14.40;4.68;;;7.70;99.90;;;7.52;100.00;101371.16;4853805;29;20038;-94
2020/12/20 05:11:08;;;;;;;13.32;4.88;;;8.50;99.90;;;7.38;100.00;101379.91;4864970;29;20049;-94
2020/12/20 05:13:41;;;;;;;10.98;3.83;;;7.70;99.90;;;7.43;100.00;101383.00;4866610;29;20045;-92
2020/12/20 05:16:27;;;;;;;19.23;4.28;;;8.10;99.90;;;7.44;100.00;101378.41;4868200;29;20033;-93
2020/12/20 05:18:53;;;;;;;15.45;3.75;;;7.70;99.90;;;7.46;100.00;101381.78;4861451;29;20093;-94
2020/12/20 05:21:29;;;;;;;12.95;4.10;;;8.10;99.90;;;7.47;100.00;101381.63;4841357;29;20037;-91
2020/12/20 05:23:57;;;;;;;16.38;3.55;;;7.70;99.90;;;7.47;100.00;101383.47;4835261;29;20036;-91
2020/12/20 05:26:29;;;;;;;8.82;3.78;;;7.60;99.90;;;7.46;100.00;101385.34;4839697;29;20120;-91
2020/12/20 05:29:15;;;;;;;7.53;4.07;;;7.60;99.90;;;7.52;100.00;101387.41;4835731;29;20678;-91
2020/12/20 05:31:41;;;;;;;13.05;3.60;;;7.60;99.90;;;7.50;100.00;101389.41;4819758;29;20045;-91
2020/12/20 05:34:07;;;;;;;21.23;3.58;;;7.60;99.90;;;7.53;100.00;101389.09;4819296;29;20033;-91
2020/12/20 05:36:34;;;;;;;8.02;3.45;;;7.80;99.90;;;7.53;100.00;101391.81;4802207;29;20065;-90
2020/12/20 05:39:19;;;;;;;16.70;4.20;;;7.70;99.90;;;7.52;100.00;101391.97;4852007;29;20037;-91
2020/12/20 05:41:45;;;;;;;;;;;7.60;99.90;;;7.44;100.00;101390.09;4835386;29;20037;-90
2020/12/20 05:44:14;;;;;;;8.77;3.95;;;7.60;99.90;;;7.54;100.00;101388.09;4834979;29;19927;-90
2020/12/20 05:46:43;;;;;;;13.80;3.90;;;7.60;99.90;;;7.48;100.00;101391.44;4835203;29;20358;-90
2020/12/20 05:49:23;;;;;;;13.07;4.13;;;7.60;99.90;;;7.47;100.00;101389.75;4835140;29;20044;-91
2020/12/20 05:52:10;;;;;;;11.80;4.15;;;7.70;99.90;;;7.46;100.00;101393.47;4834843;29;20112;-90
2020/12/20 05:54:43;;;;;;;13.02;3.70;;;8.10;99.90;;;7.43;100.00;101385.69;4819404;29;20041;-90
2020/12/20 05:57:15;;;;;;;9.23;4.13;;;8.00;99.90;;;7.31;100.00;101386.19;4836290;29;20090;-90
2020/12/20 05:59:43;;;;;;;11.10;4.43;;;7.90;99.90;;;7.39;100.00;101376.19;4832954;29;20127;-91
2020/12/20 06:02:10;;;;;;;20.45;5.13;;;7.50;99.90;;;7.43;100.00;101383.00;4842386;29;20065;-90
2020/12/20 06:04:38;;;;;;;8.43;3.25;;;7.50;99.90;;;7.34;100.00;101383.13;4819748;29;20033;-90
2020/12/20 06:07:09;;;;;;;12.52;3.88;;;7.50;99.90;;;7.35;100.00;101396.50;4834699;29;20034;-89
2020/12/20 06:10:05;;;;;;;9.48;3.60;;;7.60;99.90;;;7.41;100.00;101387.72;4851487;29;20034;-90
2020/12/20 06:12:31;;;;;;;;;;;7.50;99.90;;;7.36;100.00;101392.78;4836555;29;20088;-91
2020/12/20 06:14:59;;;;;;;10.85;4.53;;;7.50;99.90;;;7.44;100.00;101394.66;4823140;29;21095;-90
2020/12/20 06:17:28;;;;;;;10.75;4.25;;;7.50;99.90;;;7.44;100.00;101391.97;4837411;29;20057;-89
2020/12/20 06:20:05;;;;;;;13.52;3.90;;;7.60;99.90;;;7.42;100.00;101394.84;4818552;29;20477;-89
2020/12/20 06:22:38;;;;;;;18.55;4.60;;;7.70;99.90;;;7.35;100.00;101401.91;4834720;29;20059;-89
2020/12/20 06:25:06;;;;;;;8.60;3.75;;;7.50;99.90;;;7.35;100.00;101393.78;4834678;29;20037;-91
2020/12/20 06:27:35;;;;;;;15.90;4.07;;;7.50;99.90;;;7.34;100.00;101400.22;4806908;29;20042;-90
2020/12/20 06:30:05;;;;;;;9.45;3.58;;;7.40;99.90;;;7.33;100.00;101406.66;4846304;29;20045;-91
2020/12/20 06:32:43;;;;;;;13.02;3.88;;;7.40;99.90;;;7.38;100.00;101400.72;4831272;29;20033;-90
2020/12/20 06:35:23;;;;;;;12.32;4.00;;;7.50;99.90;;;7.33;100.00;101403.97;4832492;29;20042;-91
2020/12/20 06:37:50;;;;;;;10.15;4.18;;;7.20;99.90;;;7.45;100.00;101407.19;4862346;29;20026;-91
2020/12/20 06:40:32;;;;;;;12.43;4.13;;;7.50;99.90;;;7.32;100.00;101410.38;4825681;29;20030;-88
2020/12/20 06:42:59;;;;;;;17.33;4.25;;;7.50;99.90;;;7.35;100.00;101412.75;4860327;29;20042;-92
2020/12/20 06:45:36;;;;;;;9.43;4.25;;;7.40;99.90;;;7.35;100.00;101418.16;4850606;29;20030;-91
2020/12/20 06:48:06;;;;;;;7.75;3.15;;;7.50;99.90;;;7.31;100.00;101421.38;4819984;29;20137;-91
2020/12/20 06:50:49;;;;;;;13.30;4.10;;;7.50;99.90;;;7.33;100.00;101425.63;4842868;29;20109;-92
2020/12/20 06:53:17;;;;;;;16.90;3.95;;;7.60;99.90;;;7.21;100.00;101421.53;4839300;29;20062;-91
2020/12/20 06:55:45;;;;;;;12.85;4.10;;;7.50;99.90;;;7.38;100.00;101423.25;4848651;29;20030;-92
2020/12/20 06:58:19;;;;;;;11.07;4.00;;;7.90;99.90;;;7.29;100.00;101425.09;4838851;29;20023;-90
2020/12/20 07:00:54;;;;;;;12.57;3.53;;;7.40;99.90;;;7.25;100.00;101426.44;4848574;29;20108;-91
2020/12/20 07:03:23;;;;;;;12.90;4.50;;;7.50;99.90;;;7.32;100.00;101423.94;4846466;29;20034;-91
2020/12/20 07:05:54;;;;;;;9.57;3.63;;;7.40;99.90;;;7.29;100.00;101421.53;4865987;29;20022;-92
2020/12/20 07:08:56;;;;;;;7.50;3.47;;;7.40;99.90;;;7.29;100.00;101429.66;4833095;29;20034;-90
2020/12/20 07:11:31;;;;;;;15.95;4.10;;;7.40;99.90;;;7.20;100.00;101420.69;4793631;29;20051;-92
2020/12/20 07:13:58;;;;;;;11.63;3.85;;;7.40;99.90;;;7.18;100.00;101432.66;4850495;29;20030;-90
2020/12/20 07:16:40;;;;;;;13.30;4.63;;;7.40;99.90;;;7.19;100.00;101431.66;4828670;29;20542;-91
2020/12/20 07:20:07;;;;;;;13.40;4.13;;;7.40;99.90;;;7.25;100.00;101439.97;4850288;29;20049;-90
2020/12/20 07:22:33;;;;;;;11.82;3.65;;;7.30;99.90;;;7.26;100.00;101435.41;4867318;29;20034;-91
2020/12/20 07:25:00;;;;;;;14.40;5.25;;;7.90;99.90;;;7.32;100.00;101432.06;4849020;29;20051;-90
2020/12/20 07:27:26;;;;;;;11.43;4.60;;;7.30;99.90;;;7.17;100.00;101433.69;4865862;29;20049;-90
2020/12/20 07:29:52;;;;;;;14.02;4.82;;;7.70;99.90;;;7.15;100.00;101436.53;4860460;29;20130;-90
2020/12/20 07:32:18;;;;;;;11.07;4.43;;;7.60;99.90;;;7.19;100.00;101439.78;4838894;29;20044;-91
2020/12/20 07:34:48;;;;;;;13.77;4.82;;;7.30;99.90;;;7.21;100.00;101440.47;4821439;29;20450;-87
2020/12/20 07:37:14;;;;;;;15.27;4.40;;;7.30;99.90;;;7.22;100.00;101434.06;4835994;29;20042;-91
2020/12/20 07:39:40;;;;;;;11.25;4.10;;;7.40;99.90;;;7.14;100.00;101442.13;4823228;29;20042;-90
2020/12/20 07:42:05;;;;;;;13.25;5.03;;;7.30;99.90;;;7.16;100.00;101445.53;4820046;29;20106;-91
2020/12/20 07:44:31;;;;;;;9.90;3.95;;;7.30;99.90;;;7.18;100.00;101449.75;4854509;29;20046;-90
2020/12/20 07:46:57;;;;;;;14.18;4.55;;;7.20;99.90;;;7.10;100.00;101457.00;4845320;29;20120;-90
2020/12/20 07:49:23;;;;;;;12.85;3.80;;;7.30;99.90;;;7.24;100.00;101459.06;4851807;29;20132;-90
2020/12/20 07:51:50;;;;;;;12.35;3.47;;;7.30;99.90;;;7.19;100.00;101456.88;4839054;29;20033;-91
2020/12/20 07:54:19;;;;;;;11.93;5.35;;;7.40;99.90;;;7.07;100.00;101458.19;4824469;29;20097;-91
2020/12/20 07:56:47;;;;;;;18.95;5.93;;;7.30;99.90;;;7.26;100.00;101473.31;4839324;29;20050;-92
2020/12/20 07:59:16;;;;;;;16.60;4.70;;;7.10;99.90;;;7.16;100.00;101467.19;4820657;29;20034;-91
2020/12/20 08:01:45;;;;;;;8.18;3.50;;;8.10;99.90;;;7.25;100.00;101477.88;4834006;29;20548;-92
2020/12/20 08:04:14;;;;;;;15.15;4.10;;;7.40;99.90;;;7.24;100.00;101486.16;4840678;29;20058;-92
2020/12/20 08:06:42;;;;;;;16.20;4.20;;;7.40;99.90;;;7.28;100.00;101488.38;4829055;29;20113;-92
2020/12/20 08:09:20;;;;;;;14.55;4.78;;;7.40;99.90;;;7.35;100.00;101487.72;4835713;29;20033;-90
2020/12/20 08:11:48;;;;;;;16.85;4.07;;;7.60;99.90;;;7.21;100.00;101492.78;4839682;29;20045;-92
2020/12/20 08:14:20;;;;;;;18.42;3.72;;;7.40;99.90;;;7.34;100.00;101497.69;4824729;29;20034;-90
2020/12/20 08:16:50;;;;;;;14.95;4.30;;;7.50;99.90;;;7.37;100.00;101488.41;4841222;29;20029;-89
2020/12/20 08:19:26;;;;;;;17.20;4.90;;;7.80;99.90;;;7.30;100.00;101501.75;4837352;29;20038;-91
2020/12/20 08:22:15;;;;;;;11.38;3.63;;;7.50;99.90;;;7.14;100.00;101497.13;4847556;29;20049;-91
2020/12/20 08:24:47;;;;;;;13.18;4.43;;;7.60;99.90;;;7.34;100.00;101491.44;4823410;29;20030;-92
2020/12/20 08:27:28;;;;;;;12.55;3.33;;;7.50;99.90;;;7.31;100.00;101495.34;4838213;29;20057;-91
2020/12/20 08:30:00;;;;;;;11.82;4.60;;;7.80;99.90;;;7.35;100.00;101493.13;4845706;29;20030;-91
2020/12/20 08:32:48;;;;;;;13.20;4.57;;;7.60;99.90;;;7.44;100.00;101498.44;4848006;29;20034;-91
2020/12/20 08:35:21;;;;;;;12.05;4.10;;;7.60;99.90;;;7.49;100.00;101501.50;4857620;29;20117;-91
2020/12/20 08:38:00;;;;;;;10.32;4.45;;;7.70;99.90;;;7.49;100.00;101495.22;4843846;29;20029;-92
2020/12/20 08:40:34;;;;;;;20.85;3.85;;;7.70;99.90;;;7.42;100.00;101499.63;4851460;29;20056;-92
2020/12/20 08:43:04;;;;;;;15.43;4.05;;;7.70;99.90;;;7.45;100.00;101494.69;4837426;29;20041;-92
2020/12/20 08:45:30;;;;;;;16.38;4.38;;;7.70;99.90;;;7.58;100.00;101494.22;4840074;29;20057;-91
2020/12/20 08:48:04;;;;;;;9.38;3.33;;;7.80;99.90;;;7.74;100.00;101504.28;4840572;29;20026;-90
2020/12/20 08:50:31;;;;;;;10.52;3.55;;;7.90;99.90;;;7.87;100.00;101504.66;4835531;29;20086;-89
2020/12/20 08:53:07;;;;;;;11.25;3.47;;;8.00;99.90;;;7.77;100.00;101499.38;4837598;29;20026;-91
2020/12/20 08:58:18;;;;;;;13.25;3.97;;;8.00;99.90;;;7.85;100.00;101506.66;4836633;29;20057;-89
2020/12/20 09:03:24;;;;;;;15.38;3.63;;;8.10;99.90;;;7.86;100.00;101503.81;4976178;23;20125;-92
2020/12/20 09:05:50;;;;;;;11.70;3.22;;;7.70;99.90;;;8.04;100.00;101506.34;4874712;29;20037;-91
2020/12/20 09:08:19;;;;;;;16.70;3.85;;;8.20;99.90;;;8.05;100.00;101513.47;4858946;29;20041;-91
2020/12/20 09:10:45;;;;;;;15.65;4.10;;;8.20;99.90;;;8.08;100.00;101513.16;4851323;29;20105;-90
2020/12/20 09:13:11;;;;;;;14.27;4.72;;;8.60;99.90;;;8.32;100.00;101510.50;4851869;29;20034;-89
2020/12/20 09:15:39;;;;;;;15.07;3.70;;;8.30;99.90;;;8.27;100.00;101520.94;4848993;29;20090;-90
2020/12/20 09:18:25;;;;;;;11.57;4.18;;;8.40;99.90;;;8.31;100.00;101524.19;4876034;29;20059;-90
2020/12/20 09:20:52;;;;;;;13.07;3.00;;;8.50;99.90;;;8.32;100.00;101524.06;4876792;29;20036;-90
2020/12/20 09:23:25;;;;;;;13.40;3.60;;;8.50;99.90;;;8.50;100.00;101523.03;4878746;29;20037;-89
2020/12/20 09:26:03;;;;;;;15.13;3.45;;;8.60;99.90;;;8.57;100.00;101518.63;4855355;29;20009;-91
2020/12/20 09:28:32;;;;;;;9.85;3.45;;;8.70;99.90;;;8.63;100.00;101529.63;4854281;29;20033;-90
2020/12/20 09:31:11;;;;;;;15.82;4.25;;;8.70;99.90;;;8.58;100.00;101531.16;4841201;29;20100;-89
2020/12/20 09:33:37;;;;;;;14.75;3.55;;;8.80;99.90;;;8.86;100.00;101535.19;4873447;29;20088;-90
2020/12/20 09:36:23;;;;;;;12.55;3.22;;;8.90;99.90;;;8.86;100.00;101528.94;4865917;29;20069;-89
2020/12/20 09:38:55;;;;;;;10.25;2.83;;;9.00;99.90;;;8.94;100.00;101542.47;4884039;29;20033;-90
2020/12/20 09:41:24;;;;;;;18.42;4.20;;;9.40;99.90;;;9.08;100.00;101545.34;4865609;29;20041;-89
2020/12/20 09:43:52;;;;;;;11.50;3.47;;;9.20;99.90;;;9.21;100.00;101538.50;4878040;29;20476;-90
2020/12/20 09:46:38;;;;;;;14.30;3.25;;;9.30;99.90;;;9.03;100.00;101546.84;4861638;29;20040;-90
2020/12/20 09:49:05;;;;;;;12.52;2.60;;;9.30;99.90;;;9.20;100.00;101545.81;4848497;29;20037;-89
2020/12/20 09:51:34;;;;;;;13.13;2.90;;;9.40;99.90;;;9.20;100.00;101543.09;4879399;29;20029;-90
2020/12/20 09:54:00;;;;;;;17.08;3.80;;;9.30;99.90;;;9.26;100.00;101542.38;4876690;29;20037;-92
2020/12/20 09:56:27;;;;;;;22.98;5.03;;;9.40;99.90;;;9.32;100.00;101530.84;4845656;29;20021;-91
2020/12/20 09:58:53;;;;;;;12.63;3.25;;;9.40;99.90;;;9.30;100.00;101526.59;4845115;29;20080;-92
2020/12/20 10:02:15;;;;;;;16.65;3.97;;;9.40;99.90;;;9.31;100.00;101534.56;4841422;29;20045;-91
2020/12/20 10:04:46;;;;;;;13.07;3.50;;;9.50;99.90;;;9.21;99.32;101533.09;4840986;29;20045;-89
2020/12/20 10:07:12;;;;;;;10.25;3.58;;;9.40;99.90;;;9.13;99.30;101536.69;4836400;29;20030;-90
2020/12/20 10:09:38;;;;;;;13.07;3.80;;;9.40;99.90;;;9.13;100.00;101536.69;4841244;29;20113;-90
2020/12/20 10:12:08;;;;;;;20.40;3.60;;;9.40;99.90;;;9.19;99.70;101530.53;4842483;29;20029;-91
2020/12/20 10:14:40;;;;;;;19.83;4.55;;;9.50;99.90;;;9.31;99.46;101522.84;4841640;29;20033;-91
2020/12/20 10:17:06;;;;;;;12.52;4.10;;;9.90;99.90;;;9.31;98.72;101525.56;4841002;29;20044;-90
2020/12/20 10:19:33;;;;;;;13.85;3.33;;;9.90;99.90;;;9.40;99.03;101527.22;4807630;29;20046;-89
2020/12/20 10:21:59;;;;;;;11.05;3.80;;;9.70;99.90;;;9.19;98.84;101524.25;4852641;29;20128;-91
2020/12/20 10:24:25;;;;;;;14.52;4.03;;;9.60;99.90;;;9.24;98.95;101527.31;4841990;29;20054;-90
2020/12/20 10:26:51;;;;;;;11.60;3.08;;;9.50;99.90;;;9.23;99.16;101520.19;4841137;29;20037;-89
2020/12/20 10:29:22;;;;;;;8.18;3.17;;;9.40;99.90;;;9.16;99.24;101532.75;4812333;29;20049;-90
2020/12/20 10:39:18;;;;;;;7.57;2.38;;;9.40;99.90;;;9.25;99.78;101518.16;4828334;29;20084;-90
2020/12/20 10:41:45;;;;;;;13.55;3.92;;;9.40;99.90;;;9.39;99.36;101514.66;4827652;29;20057;-90
2020/12/20 10:44:13;;;;;;;9.45;3.45;;;9.50;99.90;;;9.27;99.39;101516.06;4827163;29;20066;-90
2020/12/20 10:46:39;;;;;;;15.88;3.72;;;9.50;99.90;;;9.33;99.81;101510.81;4858567;29;20033;-91